createdAt,value
2018-06-08T00:01:53.299Z,16.9
2018-06-08T00:07:22.511Z,16.8
2018-06-08T00:12:52.420Z,16.7
2018-06-08T00:18:21.428Z,16.7
2018-06-08T00:23:50.494Z,16.7
2018-06-08T00:29:19.582Z,16.7
2018-06-08T00:34:48.622Z,16.8
2018-06-08T00:40:18.612Z,16.7
2018-06-08T00:45:47.635Z,16.6
2018-06-08T00:51:16.652Z,16.5
2018-06-08T00:56:46.642Z,16.4
2018-06-08T01:02:16.794Z,16.4
2018-06-08T01:07:45.667Z,16.3
2018-06-08T01:13:14.637Z,16.3
2018-06-08T01:18:43.639Z,16.2
2018-06-08T01:24:12.647Z,16.1
2018-06-08T01:29:42.564Z,16
2018-06-08T01:35:12.509Z,16
2018-06-08T01:40:42.501Z,16
2018-06-08T01:46:11.507Z,16
2018-06-08T01:51:40.520Z,15.9
2018-06-08T01:57:09.422Z,15.8
2018-06-08T02:02:39.305Z,15.7
2018-06-08T02:08:09.163Z,15.7
2018-06-08T02:13:38.102Z,15.7
2018-06-08T02:19:07.282Z,15.7
2018-06-08T02:24:36.980Z,15.8
2018-06-08T02:30:06.904Z,15.8
2018-06-08T02:35:35.839Z,15.9
2018-06-08T02:41:05.785Z,15.9
2018-06-08T02:46:34.719Z,15.8
2018-06-08T02:52:04.744Z,15.6
2018-06-08T02:57:33.532Z,15.4
2018-06-08T03:03:03.400Z,15.3
2018-06-08T03:08:32.422Z,15.2
2018-06-08T03:14:01.216Z,15.3
2018-06-08T03:19:30.109Z,15.4
2018-06-08T03:24:59.026Z,15.5
2018-06-08T03:30:28.973Z,15.6
2018-06-08T03:35:59.025Z,15.6
2018-06-08T03:41:27.765Z,15.6
2018-06-08T03:46:56.786Z,15.6
2018-06-08T03:52:25.554Z,15.6
2018-06-08T03:57:55.539Z,15.7
2018-06-08T04:03:25.462Z,15.9
2018-06-08T04:08:55.314Z,16
2018-06-08T04:14:24.331Z,16.1
2018-06-08T04:19:53.282Z,16.2
2018-06-08T04:25:22.350Z,16.2
2018-06-08T04:30:51.219Z,16.2
2018-06-08T04:36:20.229Z,16.3
2018-06-08T04:41:49.208Z,16.4
2018-06-08T04:47:18.163Z,16.6
2018-06-08T04:52:47.178Z,16.7
2018-06-08T04:58:17.289Z,16.8
2018-06-08T05:03:47.220Z,16.9
2018-06-08T05:09:17.264Z,17
2018-06-08T05:14:46.439Z,17.1
2018-06-08T05:20:16.446Z,17.2
2018-06-08T05:25:45.428Z,17.3
2018-06-08T05:31:14.625Z,17.4
2018-06-08T05:36:44.629Z,17.5
2018-06-08T05:36:45.120Z,17.5
2018-06-08T05:42:13.784Z,17.6
2018-06-08T05:47:42.846Z,17.8
2018-06-08T05:53:11.974Z,17.9
2018-06-08T05:58:41.207Z,18.1
2018-06-08T06:04:10.374Z,18.2
2018-06-08T06:09:40.532Z,18.4
2018-06-08T06:15:10.735Z,18.6
2018-06-08T06:20:39.935Z,18.8
2018-06-08T06:26:10.533Z,19
2018-06-08T06:26:10.977Z,19
2018-06-08T06:31:39.427Z,19.1
2018-06-08T06:37:08.693Z,19.3
2018-06-08T06:42:39.029Z,19.5
2018-06-08T06:48:09.443Z,19.6
2018-06-08T06:53:39.669Z,19.7
2018-06-08T06:59:09.997Z,19.9
2018-06-08T07:04:39.418Z,20.1
2018-06-08T07:10:08.743Z,20.2
2018-06-08T07:15:38.191Z,20.4
2018-06-08T07:21:07.623Z,20.5
2018-06-08T07:26:37.039Z,20.7
2018-06-08T07:32:07.618Z,20.8
2018-06-08T07:37:37.004Z,20.9
2018-06-08T07:43:07.519Z,21
2018-06-08T07:48:36.986Z,21.2
2018-06-08T07:54:06.762Z,21.4
2018-06-08T07:59:36.095Z,21.6
2018-06-08T08:05:05.655Z,21.7
2018-06-08T08:10:35.269Z,21.8
2018-06-08T08:16:04.894Z,21.9
2018-06-08T08:21:34.567Z,22
2018-06-08T08:27:05.147Z,22.1
2018-06-08T08:32:35.819Z,22.2
2018-06-08T08:38:05.528Z,22.3
2018-06-08T08:43:35.167Z,22.4
2018-06-08T08:49:05.026Z,22.6
2018-06-08T08:54:34.575Z,22.7
2018-06-08T09:00:04.422Z,22.8
2018-06-08T09:05:34.061Z,22.9
2018-06-08T09:11:03.811Z,23
2018-06-08T09:16:34.503Z,23.1
2018-06-08T09:22:04.411Z,23.3
2018-06-08T09:22:04.719Z,23.3
2018-06-08T09:27:34.031Z,23.3
2018-06-08T09:33:03.848Z,23.4
2018-06-08T09:38:34.583Z,23.5
2018-06-08T09:44:05.390Z,23.6
2018-06-08T09:49:35.410Z,23.7
2018-06-08T09:55:05.075Z,23.8
2018-06-08T10:00:34.880Z,23.9
2018-06-08T10:06:04.813Z,24
2018-06-08T10:11:34.632Z,24
2018-06-08T10:17:04.419Z,24.1
2018-06-08T10:22:34.374Z,24.1
2018-06-08T10:28:04.142Z,24
2018-06-08T10:33:33.958Z,24
2018-06-08T10:39:03.814Z,24.1
2018-06-08T10:44:34.694Z,24.3
2018-06-08T10:50:04.640Z,24.6
2018-06-08T10:55:34.552Z,24.8
2018-06-08T11:01:05.582Z,24.9
2018-06-08T11:06:35.557Z,24.9
2018-06-08T11:12:05.477Z,25
2018-06-08T11:17:36.542Z,25.1
2018-06-08T11:23:07.478Z,25.1
2018-06-08T11:28:37.703Z,25.2
2018-06-08T11:34:08.650Z,25.4
2018-06-08T11:39:39.573Z,25.7
2018-06-08T11:45:10.795Z,25.8
2018-06-08T11:50:40.942Z,25.8
2018-06-08T11:56:11.865Z,25.9
2018-06-08T12:01:42.011Z,25.9
2018-06-08T12:07:12.076Z,25.9
2018-06-08T12:12:43.256Z,25.9
2018-06-08T12:18:13.374Z,25.9
2018-06-08T12:23:43.465Z,25.9
2018-06-08T12:29:14.525Z,25.9
2018-06-08T12:34:44.661Z,26
2018-06-08T12:40:14.791Z,26
2018-06-08T12:45:44.917Z,26.1
2018-06-08T12:51:16.058Z,26.1
2018-06-08T12:56:47.166Z,26.2
2018-06-08T13:02:18.314Z,26.2
2018-06-08T13:07:48.471Z,26.2
2018-06-08T13:13:18.703Z,26.2
2018-06-08T13:18:48.841Z,26.2
2018-06-08T13:24:20.209Z,26.2
2018-06-08T13:29:51.112Z,26.3
2018-06-08T13:35:22.346Z,26.3
2018-06-08T13:40:53.539Z,26.3
2018-06-08T13:46:23.684Z,26.4
2018-06-08T13:51:54.830Z,26.5
2018-06-08T13:57:26.611Z,26.5
2018-06-08T14:02:56.286Z,26.5
2018-06-08T14:08:27.417Z,26.5
2018-06-08T14:13:58.583Z,26.4
2018-06-08T14:19:29.765Z,26.4
2018-06-08T14:25:01.532Z,26.5
2018-06-08T14:30:31.375Z,26.5
2018-06-08T14:36:02.397Z,26.6
2018-06-08T14:41:32.743Z,26.7
2018-06-08T14:47:03.851Z,26.7
2018-06-08T14:52:35.290Z,26.7
2018-06-08T14:58:06.498Z,26.7
2018-06-08T15:03:36.548Z,26.6
2018-06-08T15:09:06.707Z,26.6
2018-06-08T15:14:36.937Z,26.5
2018-06-08T15:20:08.091Z,26.4
2018-06-08T15:25:38.254Z,26.3
2018-06-08T15:31:08.449Z,26.2
2018-06-08T15:36:38.599Z,26.1
2018-06-08T15:42:09.724Z,26.1
2018-06-08T15:47:39.880Z,26.1
2018-06-08T15:53:11.036Z,26.1
2018-06-08T15:53:11.465Z,26.1
2018-06-08T15:58:41.160Z,26
2018-06-08T16:04:11.391Z,26
2018-06-08T16:09:41.479Z,25.9
2018-06-08T16:15:11.633Z,25.7
2018-06-08T16:20:42.726Z,25.6
2018-06-08T16:26:13.751Z,25.5
2018-06-08T16:31:44.763Z,25.4
2018-06-08T16:37:14.817Z,25.3
2018-06-08T16:42:44.896Z,25.2
2018-06-08T16:48:16.059Z,25.2
2018-06-08T16:53:46.031Z,25.2
2018-06-08T16:59:16.025Z,25.1
2018-06-08T17:04:46.034Z,25.1
2018-06-08T17:10:16.032Z,25
2018-06-08T17:15:46.032Z,25
2018-06-08T17:21:16.037Z,24.9
2018-06-08T17:26:47.152Z,24.8
2018-06-08T17:32:18.033Z,24.7
2018-06-08T17:37:48.943Z,24.6
2018-06-08T17:43:19.985Z,24.5
2018-06-08T17:48:51.131Z,24.4
2018-06-08T17:54:21.807Z,24.4
2018-06-08T17:59:52.700Z,24.4
2018-06-08T18:05:22.646Z,24.4
2018-06-08T18:10:52.692Z,24.3
2018-06-08T18:16:22.550Z,24.2
2018-06-08T18:21:53.373Z,24.1
2018-06-08T18:27:23.566Z,24.1
2018-06-08T18:32:53.152Z,24
2018-06-08T18:38:23.033Z,23.9
2018-06-08T18:43:53.897Z,23.8
2018-06-08T18:49:24.751Z,23.7
2018-06-08T18:54:54.553Z,23.6
2018-06-08T19:00:25.469Z,23.6
2018-06-08T19:05:55.238Z,23.5
2018-06-08T19:11:25.045Z,23.4
2018-06-08T19:16:55.941Z,23.3
2018-06-08T19:22:25.740Z,23.2
2018-06-08T19:27:55.623Z,23.1
2018-06-08T19:33:31.276Z,23.1
2018-06-08T19:38:56.210Z,23
2018-06-08T19:44:25.751Z,22.9
2018-06-08T19:49:55.521Z,22.7
2018-06-08T19:55:26.202Z,22.6
2018-06-08T20:00:56.944Z,22.5
2018-06-08T20:06:26.738Z,22.4
2018-06-08T20:11:57.404Z,22.3
2018-06-08T20:17:27.078Z,22.3
2018-06-08T20:22:57.839Z,22.2
2018-06-08T20:28:28.600Z,22.1
2018-06-08T20:33:59.190Z,22
2018-06-08T20:39:29.867Z,22
2018-06-08T20:44:59.605Z,21.9
2018-06-08T20:50:30.596Z,21.8
2018-06-08T20:56:00.814Z,21.7
2018-06-08T21:01:30.434Z,21.5
2018-06-08T21:07:01.055Z,21.4
2018-06-08T21:12:30.618Z,21.3
2018-06-08T21:18:01.165Z,21.1
2018-06-08T21:23:30.663Z,21
2018-06-08T21:29:00.239Z,20.9
2018-06-08T21:34:30.702Z,20.8
2018-06-08T21:40:00.196Z,20.8
2018-06-08T21:45:30.694Z,20.8
2018-06-08T21:51:01.196Z,20.7
2018-06-08T21:56:30.656Z,20.7
2018-06-08T22:02:00.240Z,20.7
2018-06-08T22:07:30.616Z,20.7
2018-06-08T22:13:01.071Z,20.7
2018-06-08T22:18:30.617Z,20.7
2018-06-08T22:24:01.145Z,20.7
2018-06-08T22:29:31.515Z,20.6
2018-06-08T22:35:01.049Z,20.4
2018-06-08T22:40:30.419Z,20.3
2018-06-08T22:45:59.889Z,20.3
2018-06-08T22:51:29.278Z,20.2
2018-06-08T22:56:58.672Z,20.2
2018-06-08T23:02:28.112Z,20.1
2018-06-08T23:07:57.642Z,20.1
2018-06-08T23:13:27.093Z,20.1
2018-06-08T23:18:56.499Z,20.1
2018-06-08T23:24:26.916Z,20.1
2018-06-08T23:29:56.254Z,20
2018-06-08T23:35:26.623Z,19.9
2018-06-08T23:40:56.018Z,19.9
2018-06-08T23:46:25.373Z,19.8
2018-06-08T23:51:54.871Z,19.7
2018-06-08T23:57:25.249Z,19.6
